createdAt,value
2019-04-23T00:00:04.847Z,47.21
2019-04-23T00:02:14.269Z,47.20
2019-04-23T00:04:35.647Z,47.15
2019-04-23T00:07:15.844Z,47.15
2019-04-23T00:09:36.392Z,47.18
2019-04-23T00:11:51.843Z,47.11
2019-04-23T00:14:27.290Z,47.11
2019-04-23T00:16:49.325Z,47.11
2019-04-23T00:19:10.329Z,47.10
2019-04-23T00:21:40.489Z,47.06
2019-04-23T00:24:19.605Z,47.08
2019-04-23T00:29:05.417Z,47.09
2019-04-23T00:31:29.688Z,47.07
2019-04-23T00:33:50.628Z,47.08
2019-04-23T00:36:21.196Z,47.06
2019-04-23T00:41:10.644Z,47.05
2019-04-23T00:43:40.691Z,47.05
2019-04-23T00:45:54.790Z,47.03
2019-04-23T00:58:12.627Z,47.01
2019-04-23T01:03:10.369Z,47.01
2019-04-23T01:05:29.467Z,47.02
2019-04-23T01:07:51.862Z,46.96
2019-04-23T01:10:25.651Z,46.96
2019-04-23T01:15:21.751Z,46.94
2019-04-23T01:17:58.255Z,46.97
2019-04-23T01:20:01.933Z,46.94
2019-04-23T01:22:10.611Z,46.94
2019-04-23T01:24:38.219Z,46.91
2019-04-23T01:27:39.303Z,46.97
2019-04-23T01:30:00.041Z,46.93
2019-04-23T01:32:21.010Z,46.90
2019-04-23T01:34:49.956Z,46.96
2019-04-23T01:37:14.256Z,46.89
2019-04-23T01:39:40.152Z,46.89
2019-04-23T01:42:18.353Z,46.88
2019-04-23T01:44:38.576Z,46.89
2019-04-23T01:46:55.686Z,46.89
2019-04-23T01:49:23.598Z,46.90
2019-04-23T01:54:09.164Z,46.94
2019-04-23T01:56:35.188Z,46.90
2019-04-23T01:59:05.444Z,46.95
2019-04-23T02:01:32.749Z,46.93
2019-04-23T02:04:03.707Z,46.88
2019-04-23T02:06:29.742Z,46.87
2019-04-23T02:08:56.871Z,46.88
2019-04-23T02:11:23.155Z,46.88
2019-04-23T02:13:42.005Z,46.86
2019-04-23T02:16:06.723Z,46.83
2019-04-23T02:18:54.439Z,46.87
2019-04-23T02:20:59.034Z,46.86
2019-04-23T02:23:28.037Z,46.87
2019-04-23T02:25:50.483Z,46.84
2019-04-23T02:28:17.073Z,46.91
2019-04-23T02:35:56.051Z,46.84
2019-04-23T02:38:10.233Z,46.85
2019-04-23T02:40:51.100Z,46.86
2019-04-23T02:43:11.307Z,46.88
2019-04-23T02:45:27.491Z,46.84
2019-04-23T02:48:08.905Z,46.84
2019-04-23T02:55:21.502Z,46.86
2019-04-23T02:57:35.407Z,46.87
2019-04-23T03:09:45.823Z,46.85
2019-04-23T03:12:18.326Z,46.87
2019-04-23T03:14:41.586Z,46.83
2019-04-23T03:19:32.460Z,46.86
2019-04-23T03:22:03.390Z,46.86
2019-04-23T03:24:31.150Z,46.84
2019-04-23T03:29:26.428Z,46.83
2019-04-23T03:34:51.091Z,46.86
2019-04-23T03:36:42.803Z,46.82
2019-04-23T03:41:43.361Z,46.84
2019-04-23T03:43:46.937Z,46.84
2019-04-23T03:46:23.605Z,46.88
2019-04-23T03:48:55.146Z,46.88
2019-04-23T03:51:03.202Z,46.86
2019-04-23T03:53:44.828Z,46.80
2019-04-23T03:56:05.061Z,47.14
2019-04-23T03:58:34.353Z,47.20
2019-04-23T04:10:46.456Z,47.18
2019-04-23T04:13:24.435Z,47.19
2019-04-23T04:15:52.624Z,47.18
2019-04-23T04:20:26.481Z,47.28
2019-04-23T04:23:00.376Z,47.16
2019-04-23T04:25:14.522Z,47.38
2019-04-23T04:27:45.850Z,47.39
2019-04-23T04:30:10.676Z,47.61
2019-04-23T04:32:33.687Z,47.79
2019-04-23T04:37:41.715Z,48.09
2019-04-23T04:47:31.710Z,48.06
2019-04-23T04:49:44.397Z,48.27
2019-04-23T04:52:17.400Z,48.29
2019-04-23T04:54:22.885Z,48.67
2019-04-23T04:56:53.456Z,48.55
2019-04-23T04:59:17.621Z,48.31
2019-04-23T05:01:52.165Z,48.42
2019-04-23T05:04:14.093Z,48.58
2019-04-23T05:09:16.901Z,49.21
2019-04-23T05:13:49.806Z,48.67
2019-04-23T05:16:20.827Z,48.76
2019-04-23T05:21:12.046Z,48.84
2019-04-23T05:23:36.437Z,48.84
2019-04-23T05:26:04.928Z,48.98
2019-04-23T05:28:52.035Z,48.99
2019-04-23T05:30:52.042Z,49.07
2019-04-23T05:33:18.868Z,49.06
2019-04-23T05:38:27.849Z,49.19
2019-04-23T05:40:45.246Z,49.08
2019-04-23T05:42:58.925Z,49.44
2019-04-23T05:45:33.325Z,49.01
2019-04-23T05:47:58.671Z,49.11
2019-04-23T05:50:26.062Z,49.31
2019-04-23T05:52:58.058Z,49.26
2019-04-23T05:55:09.115Z,49.03
2019-04-23T05:57:52.097Z,49.62
2019-04-23T06:00:04.108Z,49.63
2019-04-23T06:02:37.310Z,49.87
2019-04-23T06:04:57.338Z,49.74
2019-04-23T06:07:28.948Z,49.71
2019-04-23T06:09:48.170Z,49.35
2019-04-23T06:12:25.197Z,49.33
2019-04-23T06:14:50.853Z,49.37
2019-04-23T06:17:09.311Z,49.73
2019-04-23T06:19:29.792Z,49.74
2019-04-23T06:22:06.030Z,49.34
2019-04-23T06:29:20.898Z,49.75
2019-04-23T06:31:44.066Z,49.67
2019-04-23T06:34:12.412Z,49.67
2019-04-23T06:36:32.305Z,49.67
2019-04-23T06:38:55.811Z,49.54
2019-04-23T06:41:29.027Z,49.51
2019-04-23T06:44:00.545Z,49.66
2019-04-23T06:46:19.770Z,49.53
2019-04-23T06:48:43.383Z,49.64
2019-04-23T06:51:12.837Z,49.31
2019-04-23T06:53:30.685Z,49.38
2019-04-23T06:56:04.038Z,49.69
2019-04-23T07:00:55.672Z,49.78
2019-04-23T07:03:23.181Z,49.39
2019-04-23T07:05:55.090Z,49.38
2019-04-23T07:08:12.119Z,49.80
2019-04-23T07:10:38.955Z,49.78
2019-04-23T07:13:02.746Z,49.66
2019-04-23T07:15:38.723Z,49.73
2019-04-23T07:17:55.541Z,49.79
2019-04-23T07:20:25.243Z,49.83
2019-04-23T07:22:53.867Z,49.83
2019-04-23T07:25:15.914Z,49.52
2019-04-23T07:27:33.315Z,49.80
2019-04-23T07:30:08.672Z,49.78
2019-04-23T07:32:31.002Z,49.59
2019-04-23T07:35:07.063Z,49.76
2019-04-23T07:37:23.013Z,49.51
2019-04-23T07:40:07.542Z,49.75
2019-04-23T07:47:19.432Z,49.31
2019-04-23T07:49:43.241Z,49.26
2019-04-23T07:52:10.658Z,49.24
2019-04-23T07:54:32.261Z,49.07
2019-04-23T07:57:02.254Z,49.08
2019-04-23T07:59:25.305Z,48.99
2019-04-23T08:01:50.857Z,48.94
2019-04-23T08:04:10.608Z,48.95
2019-04-23T08:06:40.011Z,48.94
2019-04-23T08:09:02.374Z,48.99
2019-04-23T08:13:59.078Z,48.94
2019-04-23T08:16:29.420Z,48.91
2019-04-23T08:18:55.586Z,48.91
2019-04-23T08:21:14.765Z,48.91
2019-04-23T08:23:44.006Z,48.88
2019-04-23T08:26:13.538Z,48.85
2019-04-23T08:28:46.567Z,48.84
2019-04-23T08:31:00.798Z,48.83
2019-04-23T08:33:27.319Z,48.79
2019-04-23T08:35:51.411Z,48.80
2019-04-23T08:40:47.310Z,48.77
2019-04-23T08:43:26.128Z,48.74
2019-04-23T08:45:31.370Z,48.79
2019-04-23T08:48:12.448Z,48.74
2019-04-23T08:50:29.250Z,48.73
2019-04-23T08:53:00.128Z,48.73
2019-04-23T08:55:20.994Z,48.69
2019-04-23T08:57:36.984Z,48.69
2019-04-23T09:00:07.804Z,48.64
2019-04-23T09:02:41.140Z,48.62
2019-04-23T09:05:16.497Z,48.62
2019-04-23T09:07:27.873Z,48.57
2019-04-23T09:09:56.758Z,48.54
2019-04-23T09:12:24.262Z,48.57
2019-04-23T09:14:44.832Z,48.53
2019-04-23T09:17:27.727Z,48.51
2019-04-23T09:22:09.041Z,48.47
2019-04-23T09:24:33.238Z,48.48
2019-04-23T09:27:00.246Z,48.45
2019-04-23T09:29:36.622Z,48.46
2019-04-23T09:34:11.332Z,48.43
2019-04-23T09:36:40.573Z,48.45
2019-04-23T09:39:10.077Z,48.51
2019-04-23T09:44:03.068Z,48.51
2019-04-23T09:46:27.447Z,48.59
2019-04-23T09:51:17.339Z,48.81
2019-04-23T09:53:46.919Z,48.85
2019-04-23T09:56:10.250Z,48.71
2019-04-23T09:58:30.064Z,48.83
2019-04-23T10:00:56.501Z,48.75
2019-04-23T10:03:16.445Z,48.61
2019-04-23T10:05:39.064Z,48.53
2019-04-23T10:08:03.038Z,48.54
2019-04-23T10:10:18.583Z,48.56
2019-04-23T10:12:44.324Z,48.57
2019-04-23T10:15:19.934Z,48.50
2019-04-23T10:17:37.960Z,48.46
2019-04-23T10:20:02.810Z,48.45
2019-04-23T10:22:31.004Z,48.48
2019-04-23T10:24:55.275Z,48.41
2019-04-23T10:27:21.098Z,48.38
2019-04-23T10:29:47.850Z,48.38
2019-04-23T10:32:13.567Z,48.35
2019-04-23T10:34:57.854Z,48.31
2019-04-23T10:37:05.178Z,48.29
2019-04-23T10:39:36.995Z,48.27
2019-04-23T10:41:57.574Z,48.25
2019-04-23T10:44:23.464Z,48.21
2019-04-23T10:47:15.232Z,48.18
2019-04-23T10:52:13.297Z,48.12
2019-04-23T10:56:59.885Z,48.05
2019-04-23T10:59:27.005Z,47.95
2019-04-23T11:01:56.990Z,47.85
2019-04-23T11:04:38.273Z,47.85
2019-04-23T11:06:45.071Z,47.78
2019-04-23T11:09:27.781Z,47.76
2019-04-23T11:11:40.238Z,47.55
2019-04-23T11:14:13.184Z,47.57
2019-04-23T11:26:17.332Z,47.42
2019-04-23T11:28:39.652Z,47.23
2019-04-23T11:31:03.729Z,47.13
2019-04-23T11:33:39.153Z,47.15
2019-04-23T11:36:18.914Z,47.17
2019-04-23T11:40:41.731Z,47.16
2019-04-23T11:43:20.309Z,47.21
2019-04-23T11:45:51.159Z,47.20
2019-04-23T11:48:33.275Z,47.38
2019-04-23T11:55:41.120Z,47.28
2019-04-23T11:58:07.763Z,47.25
2019-04-23T12:02:50.009Z,47.24
2019-04-23T12:07:36.248Z,47.05
2019-04-23T12:10:20.004Z,47.20
2019-04-23T12:12:29.799Z,47.17
2019-04-23T12:14:51.282Z,47.35
2019-04-23T12:17:33.036Z,47.34
2019-04-23T12:20:33.206Z,47.13
2019-04-23T12:22:16.612Z,47.23
2019-04-23T12:27:06.181Z,47.23
2019-04-23T12:29:44.567Z,47.20
2019-04-23T12:31:56.925Z,47.20
2019-04-23T12:34:25.799Z,47.24
2019-04-23T12:36:45.656Z,47.19
2019-04-23T12:39:24.123Z,47.27
2019-04-23T12:41:45.497Z,47.22
2019-04-23T12:44:10.915Z,47.29
2019-04-23T12:46:41.472Z,47.40
2019-04-23T12:49:06.980Z,47.46
2019-04-23T12:51:35.294Z,47.47
2019-04-23T12:53:49.389Z,47.48
2019-04-23T12:56:21.902Z,47.52
2019-04-23T12:58:34.075Z,47.53
2019-04-23T13:01:07.194Z,47.53
2019-04-23T13:03:34.095Z,47.53
2019-04-23T13:05:55.384Z,47.57
2019-04-23T13:08:34.058Z,47.44
2019-04-23T13:10:50.142Z,47.41
2019-04-23T13:13:25.714Z,47.44
2019-04-23T13:18:09.473Z,47.29
2019-04-23T13:20:43.619Z,47.28
2019-04-23T13:25:35.001Z,47.28
2019-04-23T13:30:31.628Z,47.17
2019-04-23T13:32:55.467Z,47.25
2019-04-23T13:35:28.042Z,47.06
2019-04-23T13:37:46.398Z,47.02
2019-04-23T13:40:15.276Z,47.13
2019-04-23T13:42:40.918Z,46.97
2019-04-23T13:45:07.348Z,46.93
2019-04-23T13:47:46.922Z,46.97
2019-04-23T13:49:53.238Z,46.79
2019-04-23T13:52:45.616Z,46.87
2019-04-23T13:54:59.803Z,47.03
2019-04-23T14:02:04.091Z,47.09
2019-04-23T14:04:38.377Z,47.12
2019-04-23T14:06:57.517Z,47.16
2019-04-23T14:11:38.707Z,47.02
2019-04-23T14:14:18.861Z,47.04
2019-04-23T14:26:30.858Z,47.03
2019-04-23T14:28:44.631Z,47.08
2019-04-23T14:31:14.910Z,47.17
2019-04-23T14:33:46.952Z,47.18
2019-04-23T14:38:41.650Z,47.26
2019-04-23T14:41:12.461Z,47.23
2019-04-23T14:43:22.490Z,47.30
2019-04-23T14:46:04.764Z,47.32
2019-04-23T14:48:14.607Z,47.33
2019-04-23T14:50:41.332Z,47.33
2019-04-23T14:53:12.132Z,47.35
2019-04-23T14:55:49.032Z,47.32
2019-04-23T14:58:13.217Z,47.30
2019-04-23T15:03:00.189Z,47.26
2019-04-23T15:05:21.709Z,47.29
2019-04-23T15:07:44.951Z,47.26
2019-04-23T15:10:18.715Z,47.14
2019-04-23T15:12:40.340Z,47.25
2019-04-23T15:15:10.414Z,47.22
2019-04-23T15:17:28.864Z,47.21
2019-04-23T15:20:08.356Z,47.15
2019-04-23T15:22:21.663Z,47.24
2019-04-23T15:24:49.947Z,47.50
2019-04-23T15:29:24.872Z,47.58
2019-04-23T15:34:25.106Z,47.99
2019-04-23T15:37:26.246Z,48.00
2019-04-23T15:39:27.127Z,48.19
2019-04-23T15:46:39.311Z,48.33
2019-04-23T15:51:38.957Z,48.35
2019-04-23T15:54:02.860Z,48.47
2019-04-23T15:59:04.045Z,48.44
2019-04-23T16:01:25.413Z,48.33
2019-04-23T16:03:15.582Z,48.25
2019-04-23T16:05:41.239Z,48.14
2019-04-23T16:08:39.042Z,48.21
2019-04-23T16:11:04.875Z,48.20
2019-04-23T16:13:32.471Z,48.20
2019-04-23T16:15:59.581Z,48.51
2019-04-23T16:18:29.949Z,48.48
2019-04-23T16:20:58.416Z,48.50
2019-04-23T16:23:05.713Z,48.43
2019-04-23T16:25:55.768Z,48.61
2019-04-23T16:28:03.620Z,48.38
2019-04-23T16:30:24.548Z,48.62
2019-04-23T16:33:05.260Z,48.73
2019-04-23T16:38:01.811Z,48.55
2019-04-23T16:40:33.151Z,48.61
2019-04-23T16:42:47.849Z,48.70
2019-04-23T16:45:14.916Z,48.62
2019-04-23T16:50:04.985Z,48.59
2019-04-23T16:52:26.718Z,48.52
2019-04-23T16:54:54.836Z,48.92
2019-04-23T17:00:02.949Z,48.82
2019-04-23T17:02:19.412Z,48.91
2019-04-23T17:07:16.763Z,49.06
2019-04-23T17:10:00.529Z,49.23
2019-04-23T17:12:09.142Z,49.20
2019-04-23T17:14:47.939Z,49.36
2019-04-23T17:16:56.973Z,49.42
2019-04-23T17:21:57.326Z,49.21
2019-04-23T17:27:05.449Z,48.89
